sensor_id;sensor_type;location;lat;lon;timestamp;P1;durP1;ratioP1;P2;durP2;ratioP2
14118;SDS011;7138;49.246;9.100;2023-12-04T00:00:48;25.95;;;14.13;;
14118;SDS011;7138;49.246;9.100;2023-12-04T00:03:14;25.48;;;13.27;;
14118;SDS011;7138;49.246;9.100;2023-12-04T00:05:41;25.70;;;13.65;;
14118;SDS011;7138;49.246;9.100;2023-12-04T00:08:07;25.13;;;13.70;;
14118;SDS011;7138;49.246;9.100;2023-12-04T00:10:33;27.40;;;14.70;;
14118;SDS011;7138;49.246;9.100;2023-12-04T00:13:00;27.23;;;14.23;;
14118;SDS011;7138;49.246;9.100;2023-12-04T00:15:26;27.58;;;13.75;;
14118;SDS011;7138;49.246;9.100;2023-12-04T00:17:52;23.10;;;13.43;;
14118;SDS011;7138;49.246;9.100;2023-12-04T00:20:18;24.00;;;13.23;;
14118;SDS011;7138;49.246;9.100;2023-12-04T00:22:43;26.40;;;13.27;;
14118;SDS011;7138;49.246;9.100;2023-12-04T00:25:10;24.75;;;13.57;;
14118;SDS011;7138;49.246;9.100;2023-12-04T00:27:36;24.08;;;12.93;;
14118;SDS011;7138;49.246;9.100;2023-12-04T00:30:04;24.92;;;13.63;;
14118;SDS011;7138;49.246;9.100;2023-12-04T00:32:31;23.58;;;13.80;;
14118;SDS011;7138;49.246;9.100;2023-12-04T00:34:57;24.58;;;12.95;;
14118;SDS011;7138;49.246;9.100;2023-12-04T00:37:23;25.40;;;13.90;;
14118;SDS011;7138;49.246;9.100;2023-12-04T00:39:48;24.35;;;13.88;;
14118;SDS011;7138;49.246;9.100;2023-12-04T00:42:14;23.42;;;13.52;;
14118;SDS011;7138;49.246;9.100;2023-12-04T00:44:40;26.15;;;14.70;;
14118;SDS011;7138;49.246;9.100;2023-12-04T00:47:07;27.88;;;14.18;;
14118;SDS011;7138;49.246;9.100;2023-12-04T00:49:33;27.65;;;14.35;;
14118;SDS011;7138;49.246;9.100;2023-12-04T00:51:59;25.42;;;13.82;;
14118;SDS011;7138;49.246;9.100;2023-12-04T00:54:24;23.58;;;13.10;;
14118;SDS011;7138;49.246;9.100;2023-12-04T00:56:50;25.70;;;14.13;;
14118;SDS011;7138;49.246;9.100;2023-12-04T00:59:16;25.60;;;13.93;;
14118;SDS011;7138;49.246;9.100;2023-12-04T01:01:42;27.77;;;14.40;;
14118;SDS011;7138;49.246;9.100;2023-12-04T01:04:09;28.45;;;14.65;;
14118;SDS011;7138;49.246;9.100;2023-12-04T01:06:35;26.85;;;14.32;;
14118;SDS011;7138;49.246;9.100;2023-12-04T01:09:01;23.00;;;13.13;;
14118;SDS011;7138;49.246;9.100;2023-12-04T01:11:26;25.00;;;13.40;;
14118;SDS011;7138;49.246;9.100;2023-12-04T01:13:53;26.50;;;14.00;;
14118;SDS011;7138;49.246;9.100;2023-12-04T01:16:18;24.77;;;13.90;;
14118;SDS011;7138;49.246;9.100;2023-12-04T01:18:45;26.08;;;13.73;;
14118;SDS011;7138;49.246;9.100;2023-12-04T01:21:12;24.75;;;14.05;;
14118;SDS011;7138;49.246;9.100;2023-12-04T01:23:37;26.35;;;14.18;;
14118;SDS011;7138;49.246;9.100;2023-12-04T01:26:04;27.38;;;14.02;;
14118;SDS011;7138;49.246;9.100;2023-12-04T01:28:30;25.05;;;14.40;;
14118;SDS011;7138;49.246;9.100;2023-12-04T01:30:56;26.42;;;14.00;;
14118;SDS011;7138;49.246;9.100;2023-12-04T01:33:22;27.08;;;14.15;;
14118;SDS011;7138;49.246;9.100;2023-12-04T01:35:47;23.80;;;12.73;;
14118;SDS011;7138;49.246;9.100;2023-12-04T01:38:14;26.38;;;13.80;;
14118;SDS011;7138;49.246;9.100;2023-12-04T01:40:40;27.52;;;14.32;;
14118;SDS011;7138;49.246;9.100;2023-12-04T01:43:06;26.08;;;13.68;;
14118;SDS011;7138;49.246;9.100;2023-12-04T01:45:32;24.85;;;14.23;;
14118;SDS011;7138;49.246;9.100;2023-12-04T01:47:58;26.85;;;14.13;;
14118;SDS011;7138;49.246;9.100;2023-12-04T01:50:24;25.48;;;14.27;;
14118;SDS011;7138;49.246;9.100;2023-12-04T01:52:50;25.70;;;14.32;;
14118;SDS011;7138;49.246;9.100;2023-12-04T01:55:19;26.88;;;15.05;;
14118;SDS011;7138;49.246;9.100;2023-12-04T01:57:46;26.55;;;13.77;;
14118;SDS011;7138;49.246;9.100;2023-12-04T02:00:13;26.85;;;13.98;;
14118;SDS011;7138;49.246;9.100;2023-12-04T02:02:40;24.85;;;14.27;;
14118;SDS011;7138;49.246;9.100;2023-12-04T02:05:09;26.70;;;14.48;;
14118;SDS011;7138;49.246;9.100;2023-12-04T02:10:06;26.95;;;13.02;;
14118;SDS011;7138;49.246;9.100;2023-12-04T02:12:35;26.52;;;13.50;;
14118;SDS011;7138;49.246;9.100;2023-12-04T02:15:01;24.88;;;13.43;;
14118;SDS011;7138;49.246;9.100;2023-12-04T02:17:27;27.42;;;14.82;;
14118;SDS011;7138;49.246;9.100;2023-12-04T02:19:54;29.17;;;15.50;;
14118;SDS011;7138;49.246;9.100;2023-12-04T02:22:20;27.15;;;14.52;;
14118;SDS011;7138;49.246;9.100;2023-12-04T02:24:47;23.95;;;13.57;;
14118;SDS011;7138;49.246;9.100;2023-12-04T02:27:15;27.45;;;13.82;;
14118;SDS011;7138;49.246;9.100;2023-12-04T02:29:48;28.50;;;14.13;;
14118;SDS011;7138;49.246;9.100;2023-12-04T02:32:22;27.52;;;14.10;;
14118;SDS011;7138;49.246;9.100;2023-12-04T02:34:52;26.10;;;14.20;;
14118;SDS011;7138;49.246;9.100;2023-12-04T02:37:20;24.80;;;13.43;;
14118;SDS011;7138;49.246;9.100;2023-12-04T02:39:49;25.75;;;13.73;;
14118;SDS011;7138;49.246;9.100;2023-12-04T02:42:20;24.58;;;13.50;;
14118;SDS011;7138;49.246;9.100;2023-12-04T02:44:46;24.95;;;13.38;;
14118;SDS011;7138;49.246;9.100;2023-12-04T02:47:12;24.65;;;12.90;;
14118;SDS011;7138;49.246;9.100;2023-12-04T02:49:38;25.98;;;14.38;;
14118;SDS011;7138;49.246;9.100;2023-12-04T02:52:04;25.38;;;13.57;;
14118;SDS011;7138;49.246;9.100;2023-12-04T02:54:30;23.95;;;12.90;;
14118;SDS011;7138;49.246;9.100;2023-12-04T02:56:57;22.33;;;12.32;;
14118;SDS011;7138;49.246;9.100;2023-12-04T02:59:23;26.30;;;13.43;;
14118;SDS011;7138;49.246;9.100;2023-12-04T03:01:49;25.23;;;12.77;;
14118;SDS011;7138;49.246;9.100;2023-12-04T03:04:15;27.25;;;13.43;;
14118;SDS011;7138;49.246;9.100;2023-12-04T03:06:41;23.77;;;13.50;;
14118;SDS011;7138;49.246;9.100;2023-12-04T03:09:07;25.67;;;13.38;;
14118;SDS011;7138;49.246;9.100;2023-12-04T03:11:33;27.25;;;14.70;;
14118;SDS011;7138;49.246;9.100;2023-12-04T03:14:00;26.58;;;14.05;;
14118;SDS011;7138;49.246;9.100;2023-12-04T03:16:26;24.13;;;12.85;;
14118;SDS011;7138;49.246;9.100;2023-12-04T03:18:52;25.52;;;12.18;;
14118;SDS011;7138;49.246;9.100;2023-12-04T03:21:18;23.95;;;12.80;;
14118;SDS011;7138;49.246;9.100;2023-12-04T03:23:44;25.85;;;12.77;;
14118;SDS011;7138;49.246;9.100;2023-12-04T03:26:10;23.20;;;13.05;;
14118;SDS011;7138;49.246;9.100;2023-12-04T03:28:35;24.83;;;12.85;;
14118;SDS011;7138;49.246;9.100;2023-12-04T03:31:05;26.48;;;13.18;;
14118;SDS011;7138;49.246;9.100;2023-12-04T03:33:31;27.10;;;14.00;;
14118;SDS011;7138;49.246;9.100;2023-12-04T03:35:58;24.98;;;13.30;;
14118;SDS011;7138;49.246;9.100;2023-12-04T03:38:24;23.90;;;13.20;;
14118;SDS011;7138;49.246;9.100;2023-12-04T03:40:50;26.80;;;14.48;;
14118;SDS011;7138;49.246;9.100;2023-12-04T03:43:16;23.27;;;12.52;;
14118;SDS011;7138;49.246;9.100;2023-12-04T03:45:42;23.30;;;12.07;;
14118;SDS011;7138;49.246;9.100;2023-12-04T03:48:09;25.15;;;13.43;;
14118;SDS011;7138;49.246;9.100;2023-12-04T03:50:35;27.88;;;13.75;;
14118;SDS011;7138;49.246;9.100;2023-12-04T03:53:01;27.10;;;13.25;;
14118;SDS011;7138;49.246;9.100;2023-12-04T03:55:27;22.83;;;13.52;;
14118;SDS011;7138;49.246;9.100;2023-12-04T03:57:56;24.92;;;13.00;;
14118;SDS011;7138;49.246;9.100;2023-12-04T04:00:23;23.67;;;12.02;;
14118;SDS011;7138;49.246;9.100;2023-12-04T04:02:48;26.85;;;13.52;;
14118;SDS011;7138;49.246;9.100;2023-12-04T04:05:16;28.38;;;14.90;;
14118;SDS011;7138;49.246;9.100;2023-12-04T04:07:42;24.88;;;12.95;;
14118;SDS011;7138;49.246;9.100;2023-12-04T04:10:08;23.10;;;12.50;;
14118;SDS011;7138;49.246;9.100;2023-12-04T04:12:34;25.15;;;12.57;;
14118;SDS011;7138;49.246;9.100;2023-12-04T04:15:00;24.42;;;13.52;;
14118;SDS011;7138;49.246;9.100;2023-12-04T04:17:26;23.88;;;11.80;;
14118;SDS011;7138;49.246;9.100;2023-12-04T04:19:53;26.05;;;13.45;;
14118;SDS011;7138;49.246;9.100;2023-12-04T04:22:20;23.60;;;12.15;;
14118;SDS011;7138;49.246;9.100;2023-12-04T04:24:47;21.05;;;11.93;;
14118;SDS011;7138;49.246;9.100;2023-12-04T04:27:13;21.70;;;11.82;;
14118;SDS011;7138;49.246;9.100;2023-12-04T04:29:39;22.92;;;12.18;;
14118;SDS011;7138;49.246;9.100;2023-12-04T04:32:05;20.38;;;11.40;;
14118;SDS011;7138;49.246;9.100;2023-12-04T04:34:31;23.75;;;12.57;;
14118;SDS011;7138;49.246;9.100;2023-12-04T04:36:57;19.63;;;11.10;;
14118;SDS011;7138;49.246;9.100;2023-12-04T04:39:25;21.30;;;11.90;;
14118;SDS011;7138;49.246;9.100;2023-12-04T04:41:51;25.38;;;12.73;;
14118;SDS011;7138;49.246;9.100;2023-12-04T04:44:16;22.80;;;11.82;;
14118;SDS011;7138;49.246;9.100;2023-12-04T04:46:42;22.77;;;11.93;;
14118;SDS011;7138;49.246;9.100;2023-12-04T04:49:08;20.70;;;10.63;;
14118;SDS011;7138;49.246;9.100;2023-12-04T04:51:34;20.80;;;11.43;;
14118;SDS011;7138;49.246;9.100;2023-12-04T04:54:00;20.10;;;10.77;;
14118;SDS011;7138;49.246;9.100;2023-12-04T04:56:28;20.30;;;11.05;;
14118;SDS011;7138;49.246;9.100;2023-12-04T04:58:54;20.88;;;10.98;;
14118;SDS011;7138;49.246;9.100;2023-12-04T05:01:21;22.20;;;12.70;;
14118;SDS011;7138;49.246;9.100;2023-12-04T05:03:46;20.95;;;11.82;;
14118;SDS011;7138;49.246;9.100;2023-12-04T05:06:12;21.75;;;11.93;;
14118;SDS011;7138;49.246;9.100;2023-12-04T05:08:39;21.10;;;11.63;;
14118;SDS011;7138;49.246;9.100;2023-12-04T05:11:05;19.90;;;11.05;;
14118;SDS011;7138;49.246;9.100;2023-12-04T05:13:32;18.20;;;11.05;;
14118;SDS011;7138;49.246;9.100;2023-12-04T05:15:58;20.73;;;10.98;;
14118;SDS011;7138;49.246;9.100;2023-12-04T05:18:25;20.10;;;11.00;;
14118;SDS011;7138;49.246;9.100;2023-12-04T05:20:51;19.58;;;10.85;;
14118;SDS011;7138;49.246;9.100;2023-12-04T05:23:17;19.63;;;10.88;;
14118;SDS011;7138;49.246;9.100;2023-12-04T05:25:42;20.23;;;11.07;;
14118;SDS011;7138;49.246;9.100;2023-12-04T05:28:08;19.98;;;11.13;;
14118;SDS011;7138;49.246;9.100;2023-12-04T05:30:35;21.13;;;10.68;;
14118;SDS011;7138;49.246;9.100;2023-12-04T05:33:01;21.05;;;11.20;;
14118;SDS011;7138;49.246;9.100;2023-12-04T05:35:27;22.95;;;11.90;;
14118;SDS011;7138;49.246;9.100;2023-12-04T05:37:53;21.10;;;11.30;;
14118;SDS011;7138;49.246;9.100;2023-12-04T05:40:19;22.45;;;12.07;;
14118;SDS011;7138;49.246;9.100;2023-12-04T05:42:45;25.30;;;13.23;;
14118;SDS011;7138;49.246;9.100;2023-12-04T05:45:10;20.60;;;11.07;;
14118;SDS011;7138;49.246;9.100;2023-12-04T05:47:38;21.67;;;11.57;;
14118;SDS011;7138;49.246;9.100;2023-12-04T05:50:04;23.05;;;11.73;;
14118;SDS011;7138;49.246;9.100;2023-12-04T05:52:32;21.45;;;11.80;;
14118;SDS011;7138;49.246;9.100;2023-12-04T05:54:58;21.67;;;11.95;;
14118;SDS011;7138;49.246;9.100;2023-12-04T05:57:23;20.23;;;11.88;;
14118;SDS011;7138;49.246;9.100;2023-12-04T05:59:49;23.15;;;12.57;;
14118;SDS011;7138;49.246;9.100;2023-12-04T06:02:15;20.23;;;11.35;;
14118;SDS011;7138;49.246;9.100;2023-12-04T06:04:42;20.02;;;11.05;;
14118;SDS011;7138;49.246;9.100;2023-12-04T06:07:08;20.85;;;11.25;;
14118;SDS011;7138;49.246;9.100;2023-12-04T06:09:34;18.63;;;10.60;;
14118;SDS011;7138;49.246;9.100;2023-12-04T06:12:03;19.83;;;11.27;;
14118;SDS011;7138;49.246;9.100;2023-12-04T06:14:33;19.50;;;11.18;;
14118;SDS011;7138;49.246;9.100;2023-12-04T06:16:59;22.08;;;11.20;;
14118;SDS011;7138;49.246;9.100;2023-12-04T06:19:24;20.23;;;10.90;;
14118;SDS011;7138;49.246;9.100;2023-12-04T06:21:51;19.80;;;11.55;;
14118;SDS011;7138;49.246;9.100;2023-12-04T06:24:17;20.38;;;12.02;;
14118;SDS011;7138;49.246;9.100;2023-12-04T06:26:44;21.23;;;11.88;;
14118;SDS011;7138;49.246;9.100;2023-12-04T06:29:15;23.23;;;12.45;;
14118;SDS011;7138;49.246;9.100;2023-12-04T06:31:42;23.95;;;12.45;;
14118;SDS011;7138;49.246;9.100;2023-12-04T06:34:08;22.02;;;11.48;;
14118;SDS011;7138;49.246;9.100;2023-12-04T06:36:35;21.35;;;11.40;;
14118;SDS011;7138;49.246;9.100;2023-12-04T06:39:05;13.02;;;7.80;;
14118;SDS011;7138;49.246;9.100;2023-12-04T06:41:39;19.55;;;10.65;;
14118;SDS011;7138;49.246;9.100;2023-12-04T06:44:07;18.65;;;11.02;;
14118;SDS011;7138;49.246;9.100;2023-12-04T06:46:36;17.10;;;10.38;;
14118;SDS011;7138;49.246;9.100;2023-12-04T06:49:04;17.67;;;10.07;;
14118;SDS011;7138;49.246;9.100;2023-12-04T06:53:59;18.40;;;10.63;;
14118;SDS011;7138;49.246;9.100;2023-12-04T06:56:26;18.52;;;10.20;;
14118;SDS011;7138;49.246;9.100;2023-12-04T06:58:52;19.02;;;10.35;;
14118;SDS011;7138;49.246;9.100;2023-12-04T07:01:18;18.42;;;10.80;;
14118;SDS011;7138;49.246;9.100;2023-12-04T07:03:44;19.50;;;10.45;;
14118;SDS011;7138;49.246;9.100;2023-12-04T07:06:10;21.55;;;11.68;;
14118;SDS011;7138;49.246;9.100;2023-12-04T07:08:35;21.90;;;11.35;;
14118;SDS011;7138;49.246;9.100;2023-12-04T07:11:01;20.23;;;10.73;;
14118;SDS011;7138;49.246;9.100;2023-12-04T07:13:29;20.45;;;11.25;;
14118;SDS011;7138;49.246;9.100;2023-12-04T07:15:55;19.45;;;10.90;;
14118;SDS011;7138;49.246;9.100;2023-12-04T07:18:21;18.20;;;11.30;;
14118;SDS011;7138;49.246;9.100;2023-12-04T07:20:47;20.40;;;10.05;;
14118;SDS011;7138;49.246;9.100;2023-12-04T07:23:12;19.08;;;10.95;;
14118;SDS011;7138;49.246;9.100;2023-12-04T07:25:38;20.27;;;11.45;;
14118;SDS011;7138;49.246;9.100;2023-12-04T07:28:04;22.63;;;12.30;;
14118;SDS011;7138;49.246;9.100;2023-12-04T07:30:31;21.77;;;11.38;;
14118;SDS011;7138;49.246;9.100;2023-12-04T07:32:57;23.23;;;11.80;;
14118;SDS011;7138;49.246;9.100;2023-12-04T07:35:23;19.55;;;11.48;;
14118;SDS011;7138;49.246;9.100;2023-12-04T07:37:50;20.63;;;11.07;;
14118;SDS011;7138;49.246;9.100;2023-12-04T07:40:16;23.15;;;11.48;;
14118;SDS011;7138;49.246;9.100;2023-12-04T07:42:42;22.48;;;11.32;;
14118;SDS011;7138;49.246;9.100;2023-12-04T07:45:08;20.35;;;10.77;;
14118;SDS011;7138;49.246;9.100;2023-12-04T07:47:37;20.83;;;11.77;;
14118;SDS011;7138;49.246;9.100;2023-12-04T07:50:03;19.02;;;10.80;;
14118;SDS011;7138;49.246;9.100;2023-12-04T07:52:30;21.40;;;10.63;;
14118;SDS011;7138;49.246;9.100;2023-12-04T07:54:55;19.05;;;10.52;;
14118;SDS011;7138;49.246;9.100;2023-12-04T07:57:22;19.65;;;10.13;;
14118;SDS011;7138;49.246;9.100;2023-12-04T07:59:48;19.08;;;10.55;;
14118;SDS011;7138;49.246;9.100;2023-12-04T08:02:13;19.77;;;10.57;;
14118;SDS011;7138;49.246;9.100;2023-12-04T08:04:41;20.27;;;10.82;;
14118;SDS011;7138;49.246;9.100;2023-12-04T08:07:06;20.73;;;10.82;;
14118;SDS011;7138;49.246;9.100;2023-12-04T08:09:33;19.92;;;10.80;;
14118;SDS011;7138;49.246;9.100;2023-12-04T08:11:58;17.80;;;10.00;;
14118;SDS011;7138;49.246;9.100;2023-12-04T08:14:24;17.67;;;9.98;;
14118;SDS011;7138;49.246;9.100;2023-12-04T08:16:53;18.15;;;9.98;;
14118;SDS011;7138;49.246;9.100;2023-12-04T08:19:18;16.70;;;9.00;;
14118;SDS011;7138;49.246;9.100;2023-12-04T08:21:45;16.20;;;9.00;;
14118;SDS011;7138;49.246;9.100;2023-12-04T08:24:11;18.45;;;9.30;;
14118;SDS011;7138;49.246;9.100;2023-12-04T08:26:37;18.50;;;10.55;;
14118;SDS011;7138;49.246;9.100;2023-12-04T08:29:03;17.27;;;10.35;;
14118;SDS011;7138;49.246;9.100;2023-12-04T08:31:29;15.98;;;8.90;;
14118;SDS011;7138;49.246;9.100;2023-12-04T08:33:55;16.42;;;8.90;;
14118;SDS011;7138;49.246;9.100;2023-12-04T08:36:21;16.45;;;9.45;;
14118;SDS011;7138;49.246;9.100;2023-12-04T08:38:48;16.08;;;8.88;;
14118;SDS011;7138;49.246;9.100;2023-12-04T08:41:14;14.80;;;8.57;;
14118;SDS011;7138;49.246;9.100;2023-12-04T08:43:40;17.20;;;9.20;;
14118;SDS011;7138;49.246;9.100;2023-12-04T08:46:06;15.38;;;8.88;;
14118;SDS011;7138;49.246;9.100;2023-12-04T08:48:36;14.35;;;8.43;;
14118;SDS011;7138;49.246;9.100;2023-12-04T08:51:02;16.73;;;9.20;;
14118;SDS011;7138;49.246;9.100;2023-12-04T08:53:28;16.08;;;9.00;;
14118;SDS011;7138;49.246;9.100;2023-12-04T08:55:55;17.38;;;9.07;;
14118;SDS011;7138;49.246;9.100;2023-12-04T08:58:23;18.27;;;8.88;;
14118;SDS011;7138;49.246;9.100;2023-12-04T09:00:48;15.32;;;9.15;;
14118;SDS011;7138;49.246;9.100;2023-12-04T09:03:14;16.35;;;9.13;;
14118;SDS011;7138;49.246;9.100;2023-12-04T09:05:40;19.38;;;10.05;;
14118;SDS011;7138;49.246;9.100;2023-12-04T09:08:06;17.35;;;10.18;;
14118;SDS011;7138;49.246;9.100;2023-12-04T09:10:32;16.05;;;8.70;;
14118;SDS011;7138;49.246;9.100;2023-12-04T09:12:59;17.58;;;9.80;;
14118;SDS011;7138;49.246;9.100;2023-12-04T09:15:25;16.48;;;9.27;;
14118;SDS011;7138;49.246;9.100;2023-12-04T09:17:51;16.58;;;9.65;;
14118;SDS011;7138;49.246;9.100;2023-12-04T09:20:16;17.10;;;9.80;;
14118;SDS011;7138;49.246;9.100;2023-12-04T09:22:42;16.02;;;9.93;;
14118;SDS011;7138;49.246;9.100;2023-12-04T09:25:08;13.52;;;8.43;;
14118;SDS011;7138;49.246;9.100;2023-12-04T09:27:35;16.88;;;9.23;;
14118;SDS011;7138;49.246;9.100;2023-12-04T09:30:02;17.10;;;8.73;;
14118;SDS011;7138;49.246;9.100;2023-12-04T09:32:29;15.80;;;9.17;;
14118;SDS011;7138;49.246;9.100;2023-12-04T09:34:55;16.77;;;9.88;;
14118;SDS011;7138;49.246;9.100;2023-12-04T09:37:21;18.65;;;9.93;;
14118;SDS011;7138;49.246;9.100;2023-12-04T09:39:47;16.02;;;9.15;;
14118;SDS011;7138;49.246;9.100;2023-12-04T09:42:14;15.50;;;9.20;;
14118;SDS011;7138;49.246;9.100;2023-12-04T09:44:43;16.35;;;9.30;;
14118;SDS011;7138;49.246;9.100;2023-12-04T09:47:14;16.45;;;9.43;;
14118;SDS011;7138;49.246;9.100;2023-12-04T09:49:43;17.00;;;8.73;;
14118;SDS011;7138;49.246;9.100;2023-12-04T09:52:10;16.05;;;9.45;;
14118;SDS011;7138;49.246;9.100;2023-12-04T09:54:36;16.42;;;9.23;;
14118;SDS011;7138;49.246;9.100;2023-12-04T09:57:04;16.48;;;9.40;;
14118;SDS011;7138;49.246;9.100;2023-12-04T09:59:30;18.70;;;10.98;;
14118;SDS011;7138;49.246;9.100;2023-12-04T10:01:56;15.48;;;9.02;;
14118;SDS011;7138;49.246;9.100;2023-12-04T10:04:24;17.27;;;8.55;;
14118;SDS011;7138;49.246;9.100;2023-12-04T10:06:51;14.93;;;8.65;;
14118;SDS011;7138;49.246;9.100;2023-12-04T10:09:17;17.17;;;9.85;;
14118;SDS011;7138;49.246;9.100;2023-12-04T10:11:44;21.83;;;10.98;;
14118;SDS011;7138;49.246;9.100;2023-12-04T10:14:14;19.65;;;10.63;;
14118;SDS011;7138;49.246;9.100;2023-12-04T10:16:44;15.90;;;9.15;;
14118;SDS011;7138;49.246;9.100;2023-12-04T10:19:14;16.90;;;9.10;;
14118;SDS011;7138;49.246;9.100;2023-12-04T10:21:44;16.33;;;9.65;;
14118;SDS011;7138;49.246;9.100;2023-12-04T10:24:11;17.83;;;10.85;;
14118;SDS011;7138;49.246;9.100;2023-12-04T10:26:37;18.38;;;10.50;;
14118;SDS011;7138;49.246;9.100;2023-12-04T10:29:15;18.48;;;10.68;;
14118;SDS011;7138;49.246;9.100;2023-12-04T10:31:41;18.33;;;10.10;;
14118;SDS011;7138;49.246;9.100;2023-12-04T10:34:07;18.10;;;10.23;;
14118;SDS011;7138;49.246;9.100;2023-12-04T10:36:34;16.67;;;10.10;;
14118;SDS011;7138;49.246;9.100;2023-12-04T10:39:02;16.67;;;9.50;;
14118;SDS011;7138;49.246;9.100;2023-12-04T10:41:29;18.38;;;9.68;;
14118;SDS011;7138;49.246;9.100;2023-12-04T10:43:56;17.73;;;9.57;;
14118;SDS011;7138;49.246;9.100;2023-12-04T10:46:23;20.20;;;10.35;;
14118;SDS011;7138;49.246;9.100;2023-12-04T10:48:50;19.75;;;9.98;;
14118;SDS011;7138;49.246;9.100;2023-12-04T10:51:16;16.42;;;9.55;;
14118;SDS011;7138;49.246;9.100;2023-12-04T10:53:42;20.02;;;10.77;;
14118;SDS011;7138;49.246;9.100;2023-12-04T10:56:14;17.98;;;9.93;;
14118;SDS011;7138;49.246;9.100;2023-12-04T10:58:44;18.75;;;9.13;;
14118;SDS011;7138;49.246;9.100;2023-12-04T11:01:15;20.08;;;10.68;;
14118;SDS011;7138;49.246;9.100;2023-12-04T11:03:44;25.20;;;12.05;;
14118;SDS011;7138;49.246;9.100;2023-12-04T11:06:16;23.08;;;11.32;;
14118;SDS011;7138;49.246;9.100;2023-12-04T11:08:45;20.55;;;11.90;;
14118;SDS011;7138;49.246;9.100;2023-12-04T11:11:15;20.05;;;11.15;;
14118;SDS011;7138;49.246;9.100;2023-12-04T11:13:49;19.30;;;10.98;;
14118;SDS011;7138;49.246;9.100;2023-12-04T11:16:23;22.23;;;12.65;;
14118;SDS011;7138;49.246;9.100;2023-12-04T11:18:56;22.90;;;12.57;;
14118;SDS011;7138;49.246;9.100;2023-12-04T11:21:31;18.17;;;10.90;;
14118;SDS011;7138;49.246;9.100;2023-12-04T11:23:59;15.43;;;9.38;;
14118;SDS011;7138;49.246;9.100;2023-12-04T11:26:28;15.40;;;9.23;;
14118;SDS011;7138;49.246;9.100;2023-12-04T11:28:54;17.02;;;9.70;;
14118;SDS011;7138;49.246;9.100;2023-12-04T11:31:21;14.85;;;9.32;;
14118;SDS011;7138;49.246;9.100;2023-12-04T11:33:47;17.77;;;10.45;;
14118;SDS011;7138;49.246;9.100;2023-12-04T11:36:13;19.02;;;10.93;;
14118;SDS011;7138;49.246;9.100;2023-12-04T11:38:43;17.58;;;10.43;;
14118;SDS011;7138;49.246;9.100;2023-12-04T11:41:14;19.58;;;11.48;;
14118;SDS011;7138;49.246;9.100;2023-12-04T11:43:44;16.00;;;9.45;;
14118;SDS011;7138;49.246;9.100;2023-12-04T11:46:12;17.80;;;10.70;;
14118;SDS011;7138;49.246;9.100;2023-12-04T11:48:45;17.05;;;9.63;;
14118;SDS011;7138;49.246;9.100;2023-12-04T11:51:13;17.95;;;10.77;;
14118;SDS011;7138;49.246;9.100;2023-12-04T11:54:16;19.33;;;10.60;;
14118;SDS011;7138;49.246;9.100;2023-12-04T11:56:52;20.05;;;11.95;;
14118;SDS011;7138;49.246;9.100;2023-12-04T11:59:25;19.58;;;11.30;;
14118;SDS011;7138;49.246;9.100;2023-12-04T12:01:53;18.92;;;11.32;;
14118;SDS011;7138;49.246;9.100;2023-12-04T12:04:22;19.42;;;10.85;;
14118;SDS011;7138;49.246;9.100;2023-12-04T12:06:48;25.10;;;12.85;;
14118;SDS011;7138;49.246;9.100;2023-12-04T12:09:15;18.85;;;10.98;;
14118;SDS011;7138;49.246;9.100;2023-12-04T12:11:41;18.88;;;10.40;;
14118;SDS011;7138;49.246;9.100;2023-12-04T12:14:08;18.60;;;10.55;;
14118;SDS011;7138;49.246;9.100;2023-12-04T12:16:35;18.75;;;10.93;;
14118;SDS011;7138;49.246;9.100;2023-12-04T12:19:01;18.85;;;11.30;;
14118;SDS011;7138;49.246;9.100;2023-12-04T12:21:27;17.48;;;10.60;;
14118;SDS011;7138;49.246;9.100;2023-12-04T12:23:53;15.93;;;10.13;;
14118;SDS011;7138;49.246;9.100;2023-12-04T12:26:19;17.27;;;9.88;;
14118;SDS011;7138;49.246;9.100;2023-12-04T12:28:45;21.13;;;11.88;;
14118;SDS011;7138;49.246;9.100;2023-12-04T12:31:11;21.25;;;11.70;;
14118;SDS011;7138;49.246;9.100;2023-12-04T12:33:38;19.63;;;11.07;;
14118;SDS011;7138;49.246;9.100;2023-12-04T12:36:04;18.77;;;10.77;;
14118;SDS011;7138;49.246;9.100;2023-12-04T12:38:31;18.73;;;11.45;;
14118;SDS011;7138;49.246;9.100;2023-12-04T12:41:01;18.98;;;11.32;;
14118;SDS011;7138;49.246;9.100;2023-12-04T12:43:32;17.00;;;10.48;;
14118;SDS011;7138;49.246;9.100;2023-12-04T12:45:58;18.08;;;11.00;;
14118;SDS011;7138;49.246;9.100;2023-12-04T12:48:26;17.63;;;11.00;;
14118;SDS011;7138;49.246;9.100;2023-12-04T12:50:54;19.00;;;11.48;;
14118;SDS011;7138;49.246;9.100;2023-12-04T12:53:20;20.08;;;12.10;;
14118;SDS011;7138;49.246;9.100;2023-12-04T12:55:47;19.90;;;11.82;;
14118;SDS011;7138;49.246;9.100;2023-12-04T12:58:13;18.73;;;11.65;;
14118;SDS011;7138;49.246;9.100;2023-12-04T13:00:40;18.67;;;11.30;;
14118;SDS011;7138;49.246;9.100;2023-12-04T13:03:13;20.77;;;11.90;;
14118;SDS011;7138;49.246;9.100;2023-12-04T13:05:39;20.17;;;11.57;;
14118;SDS011;7138;49.246;9.100;2023-12-04T13:08:06;22.42;;;12.07;;
14118;SDS011;7138;49.246;9.100;2023-12-04T13:10:32;19.88;;;10.98;;
14118;SDS011;7138;49.246;9.100;2023-12-04T13:12:58;22.98;;;12.30;;
14118;SDS011;7138;49.246;9.100;2023-12-04T13:15:25;19.73;;;12.05;;
14118;SDS011;7138;49.246;9.100;2023-12-04T13:17:50;20.23;;;10.93;;
14118;SDS011;7138;49.246;9.100;2023-12-04T13:20:16;18.08;;;11.15;;
14118;SDS011;7138;49.246;9.100;2023-12-04T13:22:42;21.70;;;12.32;;
14118;SDS011;7138;49.246;9.100;2023-12-04T13:25:10;19.10;;;12.13;;
14118;SDS011;7138;49.246;9.100;2023-12-04T13:27:36;22.98;;;11.57;;
14118;SDS011;7138;49.246;9.100;2023-12-04T13:30:05;22.00;;;11.90;;
14118;SDS011;7138;49.246;9.100;2023-12-04T13:32:35;19.83;;;11.30;;
14118;SDS011;7138;49.246;9.100;2023-12-04T13:35:02;18.90;;;11.27;;
14118;SDS011;7138;49.246;9.100;2023-12-04T13:37:29;22.17;;;12.60;;
14118;SDS011;7138;49.246;9.100;2023-12-04T13:39:55;19.25;;;10.93;;
14118;SDS011;7138;49.246;9.100;2023-12-04T13:42:30;21.90;;;12.43;;
14118;SDS011;7138;49.246;9.100;2023-12-04T13:45:15;19.92;;;12.00;;
14118;SDS011;7138;49.246;9.100;2023-12-04T13:47:40;21.48;;;12.18;;
14118;SDS011;7138;49.246;9.100;2023-12-04T13:50:07;21.75;;;12.85;;
14118;SDS011;7138;49.246;9.100;2023-12-04T13:52:34;22.35;;;12.55;;
14118;SDS011;7138;49.246;9.100;2023-12-04T13:54:59;23.30;;;13.07;;
14118;SDS011;7138;49.246;9.100;2023-12-04T13:57:25;20.45;;;12.23;;
14118;SDS011;7138;49.246;9.100;2023-12-04T14:00:11;21.17;;;12.55;;
14118;SDS011;7138;49.246;9.100;2023-12-04T14:02:38;18.50;;;11.05;;
14118;SDS011;7138;49.246;9.100;2023-12-04T14:05:04;24.13;;;13.77;;
14118;SDS011;7138;49.246;9.100;2023-12-04T14:07:31;23.75;;;13.50;;
14118;SDS011;7138;49.246;9.100;2023-12-04T14:09:57;21.83;;;12.88;;
14118;SDS011;7138;49.246;9.100;2023-12-04T14:12:22;19.88;;;12.18;;
14118;SDS011;7138;49.246;9.100;2023-12-04T14:14:48;22.50;;;12.85;;
14118;SDS011;7138;49.246;9.100;2023-12-04T14:17:16;86.53;;;36.65;;
14118;SDS011;7138;49.246;9.100;2023-12-04T14:19:42;40.53;;;19.83;;
14118;SDS011;7138;49.246;9.100;2023-12-04T14:22:08;25.92;;;14.48;;
14118;SDS011;7138;49.246;9.100;2023-12-04T14:24:34;24.17;;;13.32;;
14118;SDS011;7138;49.246;9.100;2023-12-04T14:27:00;23.30;;;13.00;;
14118;SDS011;7138;49.246;9.100;2023-12-04T14:29:26;21.80;;;14.00;;
14118;SDS011;7138;49.246;9.100;2023-12-04T14:31:52;21.25;;;12.77;;
14118;SDS011;7138;49.246;9.100;2023-12-04T14:34:19;22.05;;;13.02;;
14118;SDS011;7138;49.246;9.100;2023-12-04T14:36:45;22.65;;;13.63;;
14118;SDS011;7138;49.246;9.100;2023-12-04T14:39:12;21.60;;;12.32;;